sensor_id;sensor_type;location;lat;lon;timestamp;pressure;altitude;pressure_sealevel;temperature;humidity
26657;BME280;14279;50.010;8.260;2023-06-10T00:02:14;100132.59;;;23.41;46.16
26657;BME280;14279;50.010;8.260;2023-06-10T00:04:42;100134.25;;;23.42;46.58
26657;BME280;14279;50.010;8.260;2023-06-10T00:07:07;100131.78;;;23.49;46.20
26657;BME280;14279;50.010;8.260;2023-06-10T00:09:36;100125.34;;;23.51;46.23
26657;BME280;14279;50.010;8.260;2023-06-10T00:12:04;100128.63;;;23.45;46.39
26657;BME280;14279;50.010;8.260;2023-06-10T00:14:29;100127.00;;;23.52;46.45
26657;BME280;14279;50.010;8.260;2023-06-10T00:16:55;100115.38;;;23.53;46.10
26657;BME280;14279;50.010;8.260;2023-06-10T00:19:20;100119.38;;;23.58;46.67
26657;BME280;14279;50.010;8.260;2023-06-10T00:21:50;100120.03;;;23.51;46.56
26657;BME280;14279;50.010;8.260;2023-06-10T00:24:17;100117.81;;;23.38;46.69
26657;BME280;14279;50.010;8.260;2023-06-10T00:26:43;100121.34;;;23.47;46.70
26657;BME280;14279;50.010;8.260;2023-06-10T00:29:08;100120.66;;;23.45;47.08
26657;BME280;14279;50.010;8.260;2023-06-10T00:31:34;100119.84;;;23.53;46.98
26657;BME280;14279;50.010;8.260;2023-06-10T00:34:00;100115.53;;;23.52;47.14
26657;BME280;14279;50.010;8.260;2023-06-10T00:36:25;100120.66;;;23.45;47.35
26657;BME280;14279;50.010;8.260;2023-06-10T00:38:51;100116.03;;;23.47;47.24
26657;BME280;14279;50.010;8.260;2023-06-10T00:41:17;100121.97;;;23.41;47.08
26657;BME280;14279;50.010;8.260;2023-06-10T00:43:42;100117.00;;;23.46;46.84
26657;BME280;14279;50.010;8.260;2023-06-10T00:46:07;100121.66;;;23.44;47.69
26657;BME280;14279;50.010;8.260;2023-06-10T00:48:33;100123.28;;;23.37;47.49
26657;BME280;14279;50.010;8.260;2023-06-10T00:50:59;100123.09;;;23.30;47.31
26657;BME280;14279;50.010;8.260;2023-06-10T00:53:26;100129.31;;;23.12;47.62
26657;BME280;14279;50.010;8.260;2023-06-10T00:55:53;100128.22;;;23.23;47.15
26657;BME280;14279;50.010;8.260;2023-06-10T00:58:18;100130.38;;;23.28;47.40
26657;BME280;14279;50.010;8.260;2023-06-10T01:00:44;100132.41;;;23.34;46.98
26657;BME280;14279;50.010;8.260;2023-06-10T01:03:10;100124.75;;;23.31;47.46
26657;BME280;14279;50.010;8.260;2023-06-10T01:05:38;100122.78;;;23.33;47.27
26657;BME280;14279;50.010;8.260;2023-06-10T01:08:09;100125.72;;;23.22;47.39
26657;BME280;14279;50.010;8.260;2023-06-10T01:10:48;100124.03;;;23.21;46.99
26657;BME280;14279;50.010;8.260;2023-06-10T01:13:15;100131.69;;;23.24;47.77
26657;BME280;14279;50.010;8.260;2023-06-10T01:15:41;100126.06;;;23.27;47.18
26657;BME280;14279;50.010;8.260;2023-06-10T01:18:08;100126.84;;;23.19;47.80
26657;BME280;14279;50.010;8.260;2023-06-10T01:20:41;100132.72;;;23.23;47.28
26657;BME280;14279;50.010;8.260;2023-06-10T01:23:09;100134.34;;;23.24;47.55
26657;BME280;14279;50.010;8.260;2023-06-10T01:26:00;100132.47;;;23.16;47.60
26657;BME280;14279;50.010;8.260;2023-06-10T01:31:06;100133.25;;;23.08;47.27
26657;BME280;14279;50.010;8.260;2023-06-10T01:33:39;100134.25;;;23.07;47.28
26657;BME280;14279;50.010;8.260;2023-06-10T01:36:07;100128.78;;;23.09;46.71
26657;BME280;14279;50.010;8.260;2023-06-10T01:38:36;100133.44;;;23.15;47.59
26657;BME280;14279;50.010;8.260;2023-06-10T01:41:04;100130.78;;;23.15;46.68
26657;BME280;14279;50.010;8.260;2023-06-10T01:43:34;100139.75;;;23.14;47.13
26657;BME280;14279;50.010;8.260;2023-06-10T01:46:02;100138.88;;;23.05;47.03
26657;BME280;14279;50.010;8.260;2023-06-10T01:48:27;100139.88;;;23.04;47.23
26657;BME280;14279;50.010;8.260;2023-06-10T01:50:52;100138.00;;;22.96;47.04
26657;BME280;14279;50.010;8.260;2023-06-10T01:53:18;100134.06;;;23.01;46.97
26657;BME280;14279;50.010;8.260;2023-06-10T01:55:43;100135.53;;;23.03;47.48
26657;BME280;14279;50.010;8.260;2023-06-10T01:58:09;100130.97;;;22.87;47.00
26657;BME280;14279;50.010;8.260;2023-06-10T02:00:34;100143.91;;;22.82;47.13
26657;BME280;14279;50.010;8.260;2023-06-10T02:02:59;100132.63;;;22.88;46.97
26657;BME280;14279;50.010;8.260;2023-06-10T02:05:24;100137.38;;;22.76;46.69
26657;BME280;14279;50.010;8.260;2023-06-10T02:07:50;100142.84;;;22.75;46.42
26657;BME280;14279;50.010;8.260;2023-06-10T02:10:16;100140.19;;;22.75;46.20
26657;BME280;14279;50.010;8.260;2023-06-10T02:12:41;100140.00;;;22.68;46.44
26657;BME280;14279;50.010;8.260;2023-06-10T02:15:06;100134.38;;;22.71;46.36
26657;BME280;14279;50.010;8.260;2023-06-10T02:17:31;100145.59;;;22.65;46.37
26657;BME280;14279;50.010;8.260;2023-06-10T02:19:57;100142.59;;;22.60;46.51
26657;BME280;14279;50.010;8.260;2023-06-10T02:22:24;100143.06;;;22.55;46.47
26657;BME280;14279;50.010;8.260;2023-06-10T02:24:50;100143.19;;;22.54;46.41
26657;BME280;14279;50.010;8.260;2023-06-10T02:27:16;100140.91;;;22.59;46.04
26657;BME280;14279;50.010;8.260;2023-06-10T02:29:42;100137.22;;;22.51;46.44
26657;BME280;14279;50.010;8.260;2023-06-10T02:32:08;100136.75;;;22.38;46.39
26657;BME280;14279;50.010;8.260;2023-06-10T02:34:33;100139.09;;;22.41;46.21
26657;BME280;14279;50.010;8.260;2023-06-10T02:36:59;100150.53;;;22.42;46.67
26657;BME280;14279;50.010;8.260;2023-06-10T02:39:25;100151.78;;;22.47;45.84
26657;BME280;14279;50.010;8.260;2023-06-10T02:41:51;100148.03;;;22.40;45.67
26657;BME280;14279;50.010;8.260;2023-06-10T02:44:18;100148.44;;;22.45;46.62
26657;BME280;14279;50.010;8.260;2023-06-10T02:46:43;100151.94;;;22.46;46.07
26657;BME280;14279;50.010;8.260;2023-06-10T02:49:08;100157.44;;;22.52;45.85
26657;BME280;14279;50.010;8.260;2023-06-10T02:51:33;100148.84;;;22.50;46.57
26657;BME280;14279;50.010;8.260;2023-06-10T02:53:58;100148.88;;;22.59;46.49
26657;BME280;14279;50.010;8.260;2023-06-10T02:56:24;100150.69;;;22.40;46.09
26657;BME280;14279;50.010;8.260;2023-06-10T02:58:50;100151.25;;;22.44;46.37
26657;BME280;14279;50.010;8.260;2023-06-10T03:01:17;100151.78;;;22.47;45.86
26657;BME280;14279;50.010;8.260;2023-06-10T03:03:44;100151.84;;;22.56;45.57
26657;BME280;14279;50.010;8.260;2023-06-10T03:06:12;100156.63;;;22.52;45.31
26657;BME280;14279;50.010;8.260;2023-06-10T03:08:38;100159.44;;;22.50;45.86
26657;BME280;14279;50.010;8.260;2023-06-10T03:11:04;100157.91;;;22.48;46.08
26657;BME280;14279;50.010;8.260;2023-06-10T03:13:29;100156.91;;;22.49;45.89
26657;BME280;14279;50.010;8.260;2023-06-10T03:15:54;100156.41;;;22.45;46.37
26657;BME280;14279;50.010;8.260;2023-06-10T03:18:20;100161.41;;;22.48;46.26
26657;BME280;14279;50.010;8.260;2023-06-10T03:20:45;100159.44;;;22.50;46.46
26657;BME280;14279;50.010;8.260;2023-06-10T03:23:11;100158.59;;;22.50;46.16
26657;BME280;14279;50.010;8.260;2023-06-10T03:25:36;100161.31;;;22.40;46.79
26657;BME280;14279;50.010;8.260;2023-06-10T03:28:01;100160.19;;;22.43;46.37
26657;BME280;14279;50.010;8.260;2023-06-10T03:30:29;100162.22;;;22.49;46.52
26657;BME280;14279;50.010;8.260;2023-06-10T03:32:55;100155.56;;;22.45;46.70
26657;BME280;14279;50.010;8.260;2023-06-10T03:35:20;100166.72;;;22.48;47.03
26657;BME280;14279;50.010;8.260;2023-06-10T03:37:45;100162.41;;;22.47;46.88
26657;BME280;14279;50.010;8.260;2023-06-10T03:40:11;100161.13;;;22.42;47.18
26657;BME280;14279;50.010;8.260;2023-06-10T03:42:36;100171.34;;;22.46;47.05
26657;BME280;14279;50.010;8.260;2023-06-10T03:45:02;100171.16;;;22.48;47.08
26657;BME280;14279;50.010;8.260;2023-06-10T03:47:33;100175.78;;;22.46;46.91
26657;BME280;14279;50.010;8.260;2023-06-10T03:49:58;100171.63;;;22.43;47.04
26657;BME280;14279;50.010;8.260;2023-06-10T03:52:23;100173.00;;;22.47;47.42
26657;BME280;14279;50.010;8.260;2023-06-10T03:54:49;100169.38;;;22.48;47.56
26657;BME280;14279;50.010;8.260;2023-06-10T03:57:14;100176.34;;;22.49;47.51
26657;BME280;14279;50.010;8.260;2023-06-10T03:59:39;100171.69;;;22.51;47.49
26657;BME280;14279;50.010;8.260;2023-06-10T04:02:04;100179.81;;;22.50;47.37
26657;BME280;14279;50.010;8.260;2023-06-10T04:04:31;100180.78;;;22.49;47.81
26657;BME280;14279;50.010;8.260;2023-06-10T04:06:57;100181.78;;;22.48;48.02
26657;BME280;14279;50.010;8.260;2023-06-10T04:09:22;100172.53;;;22.52;47.98
26657;BME280;14279;50.010;8.260;2023-06-10T04:11:48;100179.88;;;22.58;47.96
26657;BME280;14279;50.010;8.260;2023-06-10T04:14:13;100183.34;;;22.59;47.52
26657;BME280;14279;50.010;8.260;2023-06-10T04:16:38;100178.72;;;22.61;47.33
26657;BME280;14279;50.010;8.260;2023-06-10T04:19:03;100178.59;;;22.62;47.37
26657;BME280;14279;50.010;8.260;2023-06-10T04:21:29;100182.28;;;22.51;46.13
26657;BME280;14279;50.010;8.260;2023-06-10T04:23:54;100188.97;;;22.37;46.40
26657;BME280;14279;50.010;8.260;2023-06-10T04:26:19;100195.00;;;22.30;46.00
26657;BME280;14279;50.010;8.260;2023-06-10T04:28:45;100191.38;;;22.31;46.67
26657;BME280;14279;50.010;8.260;2023-06-10T04:31:10;100191.28;;;22.41;46.25
26657;BME280;14279;50.010;8.260;2023-06-10T04:33:35;100195.22;;;22.46;47.03
26657;BME280;14279;50.010;8.260;2023-06-10T04:36:02;100197.91;;;22.55;46.90
26657;BME280;14279;50.010;8.260;2023-06-10T04:38:27;100194.94;;;22.58;47.38
26657;BME280;14279;50.010;8.260;2023-06-10T04:40:53;100202.59;;;22.61;47.61
26657;BME280;14279;50.010;8.260;2023-06-10T04:43:18;100201.78;;;22.60;47.68
26657;BME280;14279;50.010;8.260;2023-06-10T04:45:43;100199.72;;;22.72;48.08
26657;BME280;14279;50.010;8.260;2023-06-10T04:48:10;100204.09;;;22.81;47.75
26657;BME280;14279;50.010;8.260;2023-06-10T04:50:36;100203.66;;;22.86;47.14
26657;BME280;14279;50.010;8.260;2023-06-10T04:53:01;100209.66;;;22.96;46.54
26657;BME280;14279;50.010;8.260;2023-06-10T04:55:27;100207.78;;;22.89;45.87
26657;BME280;14279;50.010;8.260;2023-06-10T04:57:52;100200.41;;;23.01;45.62
26657;BME280;14279;50.010;8.260;2023-06-10T05:00:17;100203.13;;;23.09;45.57
26657;BME280;14279;50.010;8.260;2023-06-10T05:02:43;100201.47;;;23.08;46.12
26657;BME280;14279;50.010;8.260;2023-06-10T05:05:08;100195.97;;;23.09;46.30
26657;BME280;14279;50.010;8.260;2023-06-10T05:07:33;100203.47;;;23.14;45.58
26657;BME280;14279;50.010;8.260;2023-06-10T05:09:58;100201.50;;;23.16;45.12
26657;BME280;14279;50.010;8.260;2023-06-10T05:12:24;100196.09;;;23.26;44.10
26657;BME280;14279;50.010;8.260;2023-06-10T05:14:49;100195.78;;;23.29;44.70
26657;BME280;14279;50.010;8.260;2023-06-10T05:17:15;100208.69;;;23.24;44.07
26657;BME280;14279;50.010;8.260;2023-06-10T05:19:40;100202.25;;;23.26;43.54
26657;BME280;14279;50.010;8.260;2023-06-10T05:22:06;100201.16;;;23.37;43.77
26657;BME280;14279;50.010;8.260;2023-06-10T05:24:31;100199.75;;;23.25;43.00
26657;BME280;14279;50.010;8.260;2023-06-10T05:26:57;100198.13;;;23.32;43.13
26657;BME280;14279;50.010;8.260;2023-06-10T05:29:22;100205.09;;;23.33;43.58
26657;BME280;14279;50.010;8.260;2023-06-10T05:31:47;100206.53;;;23.54;44.70
26657;BME280;14279;50.010;8.260;2023-06-10T05:34:12;100201.34;;;23.44;46.38
26657;BME280;14279;50.010;8.260;2023-06-10T05:36:38;100203.03;;;23.53;45.77
26657;BME280;14279;50.010;8.260;2023-06-10T05:39:03;100202.38;;;23.51;46.28
26657;BME280;14279;50.010;8.260;2023-06-10T05:41:29;100210.72;;;23.65;46.55
26657;BME280;14279;50.010;8.260;2023-06-10T05:43:54;100201.03;;;23.47;46.52
26657;BME280;14279;50.010;8.260;2023-06-10T05:46:20;100200.16;;;23.38;47.12
26657;BME280;14279;50.010;8.260;2023-06-10T05:48:45;100195.66;;;23.39;46.01
26657;BME280;14279;50.010;8.260;2023-06-10T05:51:10;100201.69;;;23.49;46.10
26657;BME280;14279;50.010;8.260;2023-06-10T05:53:36;100204.22;;;23.59;46.01
26657;BME280;14279;50.010;8.260;2023-06-10T05:56:01;100209.47;;;23.42;45.34
26657;BME280;14279;50.010;8.260;2023-06-10T05:58:26;100217.13;;;23.46;44.96
26657;BME280;14279;50.010;8.260;2023-06-10T06:00:52;100215.47;;;23.45;43.86
26657;BME280;14279;50.010;8.260;2023-06-10T06:03:17;100212.81;;;23.53;43.55
26657;BME280;14279;50.010;8.260;2023-06-10T06:05:42;100217.88;;;23.72;43.38
26657;BME280;14279;50.010;8.260;2023-06-10T06:08:08;100216.59;;;23.85;43.32
26657;BME280;14279;50.010;8.260;2023-06-10T06:10:33;100215.69;;;24.02;43.00
26657;BME280;14279;50.010;8.260;2023-06-10T06:13:00;100210.88;;;23.98;42.70
26657;BME280;14279;50.010;8.260;2023-06-10T06:15:25;100210.66;;;23.91;42.80
26657;BME280;14279;50.010;8.260;2023-06-10T06:17:51;100215.56;;;23.78;42.42
26657;BME280;14279;50.010;8.260;2023-06-10T06:20:20;100212.56;;;23.72;42.47
26657;BME280;14279;50.010;8.260;2023-06-10T06:22:45;100207.38;;;23.63;42.09
26657;BME280;14279;50.010;8.260;2023-06-10T06:25:10;100210.25;;;23.78;42.34
26657;BME280;14279;50.010;8.260;2023-06-10T06:27:36;100207.47;;;23.79;42.07
26657;BME280;14279;50.010;8.260;2023-06-10T06:30:01;100208.28;;;23.80;41.63
26657;BME280;14279;50.010;8.260;2023-06-10T06:32:26;100209.44;;;23.85;41.55
26657;BME280;14279;50.010;8.260;2023-06-10T06:34:53;100208.22;;;24.06;41.20
26657;BME280;14279;50.010;8.260;2023-06-10T06:37:25;100207.94;;;24.26;41.04
26657;BME280;14279;50.010;8.260;2023-06-10T06:39:53;100210.28;;;24.54;40.64
26657;BME280;14279;50.010;8.260;2023-06-10T06:42:19;100213.06;;;24.27;40.66
26657;BME280;14279;50.010;8.260;2023-06-10T06:44:46;100223.72;;;24.27;40.48
26657;BME280;14279;50.010;8.260;2023-06-10T06:47:11;100221.91;;;24.53;40.41
26657;BME280;14279;50.010;8.260;2023-06-10T06:49:37;100226.06;;;24.55;39.72
26657;BME280;14279;50.010;8.260;2023-06-10T06:52:02;100228.53;;;24.57;39.40
26657;BME280;14279;50.010;8.260;2023-06-10T06:54:28;100226.53;;;24.17;40.14
26657;BME280;14279;50.010;8.260;2023-06-10T06:56:54;100227.06;;;24.38;40.19
26657;BME280;14279;50.010;8.260;2023-06-10T06:59:19;100223.56;;;24.45;40.25
26657;BME280;14279;50.010;8.260;2023-06-10T07:01:45;100230.22;;;24.41;39.83
26657;BME280;14279;50.010;8.260;2023-06-10T07:04:11;100225.72;;;24.50;40.07
26657;BME280;14279;50.010;8.260;2023-06-10T07:06:36;100224.91;;;24.50;40.16
26657;BME280;14279;50.010;8.260;2023-06-10T07:09:03;100228.94;;;24.79;39.73
26657;BME280;14279;50.010;8.260;2023-06-10T07:11:29;100224.38;;;25.12;39.27
26657;BME280;14279;50.010;8.260;2023-06-10T07:13:55;100233.91;;;24.73;40.09
26657;BME280;14279;50.010;8.260;2023-06-10T07:16:20;100230.75;;;24.86;39.94
26657;BME280;14279;50.010;8.260;2023-06-10T07:18:46;100230.72;;;24.95;39.91
26657;BME280;14279;50.010;8.260;2023-06-10T07:21:11;100235.06;;;24.63;40.30
26657;BME280;14279;50.010;8.260;2023-06-10T07:23:37;100233.56;;;24.52;40.91
26657;BME280;14279;50.010;8.260;2023-06-10T07:26:02;100231.56;;;24.70;40.64
26657;BME280;14279;50.010;8.260;2023-06-10T07:28:27;100238.03;;;24.59;40.46
26657;BME280;14279;50.010;8.260;2023-06-10T07:30:53;100232.25;;;24.72;40.23
26657;BME280;14279;50.010;8.260;2023-06-10T07:33:18;100228.34;;;25.16;39.66
26657;BME280;14279;50.010;8.260;2023-06-10T07:35:43;100237.03;;;24.94;40.20
26657;BME280;14279;50.010;8.260;2023-06-10T07:38:09;100242.38;;;24.94;40.01
26657;BME280;14279;50.010;8.260;2023-06-10T07:40:34;100236.34;;;25.25;39.82
26657;BME280;14279;50.010;8.260;2023-06-10T07:42:59;100231.16;;;25.31;39.93
26657;BME280;14279;50.010;8.260;2023-06-10T07:45:25;100237.28;;;25.57;39.27
26657;BME280;14279;50.010;8.260;2023-06-10T07:47:50;100233.97;;;25.46;39.51
26657;BME280;14279;50.010;8.260;2023-06-10T07:50:15;100227.81;;;25.38;39.63
26657;BME280;14279;50.010;8.260;2023-06-10T07:52:41;100232.63;;;25.50;39.17
26657;BME280;14279;50.010;8.260;2023-06-10T07:55:06;100227.53;;;25.24;39.26
26657;BME280;14279;50.010;8.260;2023-06-10T07:57:32;100228.28;;;25.58;39.08
26657;BME280;14279;50.010;8.260;2023-06-10T08:00:01;100227.16;;;25.44;39.13
26657;BME280;14279;50.010;8.260;2023-06-10T08:02:29;100224.44;;;25.60;39.07
26657;BME280;14279;50.010;8.260;2023-06-10T08:04:54;100225.75;;;25.64;38.54
26657;BME280;14279;50.010;8.260;2023-06-10T08:07:19;100218.69;;;26.11;38.14
26657;BME280;14279;50.010;8.260;2023-06-10T08:09:45;100230.78;;;25.91;38.53
26657;BME280;14279;50.010;8.260;2023-06-10T08:12:10;100226.16;;;25.85;38.96
26657;BME280;14279;50.010;8.260;2023-06-10T08:14:35;100225.19;;;26.09;38.79
26657;BME280;14279;50.010;8.260;2023-06-10T08:17:02;100221.66;;;26.17;38.72
26657;BME280;14279;50.010;8.260;2023-06-10T08:19:30;100231.00;;;26.13;39.15
26657;BME280;14279;50.010;8.260;2023-06-10T08:21:55;100228.66;;;26.41;38.55
26657;BME280;14279;50.010;8.260;2023-06-10T08:24:21;100226.91;;;26.33;39.23
26657;BME280;14279;50.010;8.260;2023-06-10T08:26:46;100232.09;;;26.50;38.83
26657;BME280;14279;50.010;8.260;2023-06-10T08:29:12;100223.44;;;26.71;38.52
26657;BME280;14279;50.010;8.260;2023-06-10T08:31:39;100233.38;;;26.77;38.55
26657;BME280;14279;50.010;8.260;2023-06-10T08:34:05;100234.56;;;26.75;38.17
26657;BME280;14279;50.010;8.260;2023-06-10T08:36:31;100227.59;;;26.50;38.13
26657;BME280;14279;50.010;8.260;2023-06-10T08:38:56;100230.81;;;26.22;38.35
26657;BME280;14279;50.010;8.260;2023-06-10T08:41:25;100236.31;;;26.44;38.42
26657;BME280;14279;50.010;8.260;2023-06-10T08:44:16;100233.84;;;26.11;39.16
26657;BME280;14279;50.010;8.260;2023-06-10T08:46:45;100235.78;;;26.72;38.44
26657;BME280;14279;50.010;8.260;2023-06-10T08:49:17;100235.38;;;26.75;37.72
26657;BME280;14279;50.010;8.260;2023-06-10T08:51:43;100236.25;;;26.52;37.67
26657;BME280;14279;50.010;8.260;2023-06-10T08:54:17;100231.91;;;26.75;36.89
26657;BME280;14279;50.010;8.260;2023-06-10T08:56:45;100234.00;;;26.88;37.00
26657;BME280;14279;50.010;8.260;2023-06-10T08:59:13;100232.31;;;26.63;37.27
26657;BME280;14279;50.010;8.260;2023-06-10T09:01:39;100233.97;;;26.64;37.66
26657;BME280;14279;50.010;8.260;2023-06-10T09:04:04;100232.91;;;26.50;37.47
26657;BME280;14279;50.010;8.260;2023-06-10T09:06:32;100224.22;;;26.33;37.66
26657;BME280;14279;50.010;8.260;2023-06-10T09:08:59;100224.16;;;26.65;37.09
26657;BME280;14279;50.010;8.260;2023-06-10T09:11:24;100223.88;;;26.75;37.29
26657;BME280;14279;50.010;8.260;2023-06-10T09:13:50;100226.38;;;26.76;37.22
26657;BME280;14279;50.010;8.260;2023-06-10T09:16:16;100221.63;;;26.63;37.28
26657;BME280;14279;50.010;8.260;2023-06-10T09:18:42;100214.94;;;26.67;37.43
26657;BME280;14279;50.010;8.260;2023-06-10T09:21:07;100205.72;;;26.55;37.60
26657;BME280;14279;50.010;8.260;2023-06-10T09:23:33;100206.16;;;26.97;36.96
26657;BME280;14279;50.010;8.260;2023-06-10T09:25:58;100210.25;;;26.93;36.88
26657;BME280;14279;50.010;8.260;2023-06-10T09:28:24;100207.56;;;26.93;37.06
26657;BME280;14279;50.010;8.260;2023-06-10T09:30:50;100211.78;;;26.87;37.83
26657;BME280;14279;50.010;8.260;2023-06-10T09:33:26;100202.59;;;26.90;37.84
26657;BME280;14279;50.010;8.260;2023-06-10T09:35:51;100208.16;;;26.80;37.83
26657;BME280;14279;50.010;8.260;2023-06-10T09:38:21;100198.38;;;27.10;37.26
26657;BME280;14279;50.010;8.260;2023-06-10T09:43:18;100205.44;;;27.03;37.46
26657;BME280;14279;50.010;8.260;2023-06-10T09:45:43;100199.28;;;27.03;37.37
26657;BME280;14279;50.010;8.260;2023-06-10T09:48:09;100199.00;;;26.97;37.18
26657;BME280;14279;50.010;8.260;2023-06-10T09:50:34;100198.19;;;27.57;36.32
26657;BME280;14279;50.010;8.260;2023-06-10T09:53:00;100196.59;;;26.64;37.96
26657;BME280;14279;50.010;8.260;2023-06-10T09:55:27;100193.47;;;27.29;37.13
26657;BME280;14279;50.010;8.260;2023-06-10T09:57:53;100186.56;;;27.65;36.63
26657;BME280;14279;50.010;8.260;2023-06-10T10:00:19;100188.63;;;28.06;35.75
26657;BME280;14279;50.010;8.260;2023-06-10T10:02:48;100189.19;;;27.80;36.56
26657;BME280;14279;50.010;8.260;2023-06-10T10:05:18;100185.06;;;28.14;35.65
26657;BME280;14279;50.010;8.260;2023-06-10T10:07:44;100194.41;;;28.03;35.66
26657;BME280;14279;50.010;8.260;2023-06-10T10:10:11;100186.25;;;28.11;35.90
26657;BME280;14279;50.010;8.260;2023-06-10T10:12:38;100193.53;;;28.17;35.78
26657;BME280;14279;50.010;8.260;2023-06-10T10:15:06;100190.44;;;27.99;36.44
26657;BME280;14279;50.010;8.260;2023-06-10T10:17:34;100195.59;;;28.00;36.41
26657;BME280;14279;50.010;8.260;2023-06-10T10:20:05;100184.00;;;27.26;37.20
26657;BME280;14279;50.010;8.260;2023-06-10T10:22:39;100188.41;;;27.64;36.67
26657;BME280;14279;50.010;8.260;2023-06-10T10:25:10;100193.03;;;27.55;36.29
26657;BME280;14279;50.010;8.260;2023-06-10T10:27:48;100188.72;;;27.54;37.17
26657;BME280;14279;50.010;8.260;2023-06-10T10:30:14;100191.66;;;27.44;36.81
26657;BME280;14279;50.010;8.260;2023-06-10T10:32:57;100193.63;;;27.72;36.59
26657;BME280;14279;50.010;8.260;2023-06-10T10:35:25;100188.31;;;27.57;36.90
26657;BME280;14279;50.010;8.260;2023-06-10T10:37:52;100183.38;;;27.54;37.07
26657;BME280;14279;50.010;8.260;2023-06-10T10:40:23;100192.44;;;27.75;36.48
26657;BME280;14279;50.010;8.260;2023-06-10T10:42:49;100182.78;;;27.44;36.69
26657;BME280;14279;50.010;8.260;2023-06-10T10:45:16;100186.75;;;27.63;36.52
26657;BME280;14279;50.010;8.260;2023-06-10T10:47:41;100186.91;;;27.62;36.47
26657;BME280;14279;50.010;8.260;2023-06-10T10:50:18;100174.97;;;27.42;37.05
26657;BME280;14279;50.010;8.260;2023-06-10T10:52:55;100175.06;;;27.49;36.24
26657;BME280;14279;50.010;8.260;2023-06-10T10:58:05;100173.19;;;28.23;35.58
26657;BME280;14279;50.010;8.260;2023-06-10T11:00:42;100174.59;;;28.69;35.09
26657;BME280;14279;50.010;8.260;2023-06-10T11:03:13;100168.50;;;28.54;34.94
26657;BME280;14279;50.010;8.260;2023-06-10T11:05:44;100168.78;;;28.65;34.19
26657;BME280;14279;50.010;8.260;2023-06-10T11:08:13;100172.56;;;28.71;34.99
26657;BME280;14279;50.010;8.260;2023-06-10T11:10:53;100159.25;;;28.78;34.83
26657;BME280;14279;50.010;8.260;2023-06-10T11:13:22;100156.22;;;28.88;34.83
26657;BME280;14279;50.010;8.260;2023-06-10T11:15:51;100158.75;;;28.17;34.94
26657;BME280;14279;50.010;8.260;2023-06-10T11:18:26;100160.09;;;28.57;33.79
26657;BME280;14279;50.010;8.260;2023-06-10T11:20:54;100160.28;;;28.55;33.86
26657;BME280;14279;50.010;8.260;2023-06-10T11:31:32;100157.09;;;28.45;34.91
26657;BME280;14279;50.010;8.260;2023-06-10T11:33:59;100149.81;;;28.89;34.45
26657;BME280;14279;50.010;8.260;2023-06-10T11:36:26;100145.09;;;28.91;33.79
26657;BME280;14279;50.010;8.260;2023-06-10T11:38:59;100150.13;;;29.07;33.84
26657;BME280;14279;50.010;8.260;2023-06-10T11:41:25;100145.63;;;29.15;34.00
26657;BME280;14279;50.010;8.260;2023-06-10T11:43:52;100139.94;;;28.61;34.59
26657;BME280;14279;50.010;8.260;2023-06-10T11:46:17;100143.53;;;28.46;34.52
26657;BME280;14279;50.010;8.260;2023-06-10T11:48:53;100139.03;;;28.54;34.70
26657;BME280;14279;50.010;8.260;2023-06-10T11:51:18;100121.78;;;28.56;34.68
26657;BME280;14279;50.010;8.260;2023-06-10T11:53:45;100137.53;;;28.73;34.54
26657;BME280;14279;50.010;8.260;2023-06-10T11:56:13;100137.59;;;28.51;34.38
26657;BME280;14279;50.010;8.260;2023-06-10T11:58:43;100133.69;;;28.75;34.25
26657;BME280;14279;50.010;8.260;2023-06-10T12:01:10;100129.56;;;29.15;33.18
26657;BME280;14279;50.010;8.260;2023-06-10T12:03:38;100125.28;;;29.96;32.21
26657;BME280;14279;50.010;8.260;2023-06-10T12:06:05;100118.00;;;29.63;32.66
26657;BME280;14279;50.010;8.260;2023-06-10T12:08:31;100122.47;;;29.42;32.44
26657;BME280;14279;50.010;8.260;2023-06-10T12:10:57;100127.72;;;28.80;33.27
26657;BME280;14279;50.010;8.260;2023-06-10T12:13:23;100117.34;;;28.70;32.52
26657;BME280;14279;50.010;8.260;2023-06-10T12:15:49;100114.34;;;29.22;32.21
26657;BME280;14279;50.010;8.260;2023-06-10T12:18:18;100108.72;;;29.59;31.84
26657;BME280;14279;50.010;8.260;2023-06-10T12:20:44;100095.38;;;30.12;31.02
26657;BME280;14279;50.010;8.260;2023-06-10T12:23:10;100110.03;;;30.10;30.75
26657;BME280;14279;50.010;8.260;2023-06-10T12:25:36;100105.50;;;30.10;30.62
26657;BME280;14279;50.010;8.260;2023-06-10T12:28:02;100094.50;;;30.72;29.47
26657;BME280;14279;50.010;8.260;2023-06-10T12:30:28;100093.38;;;31.07;29.21
26657;BME280;14279;50.010;8.260;2023-06-10T12:32:54;100096.97;;;30.81;28.76
26657;BME280;14279;50.010;8.260;2023-06-10T12:35:22;100102.63;;;30.05;29.75
26657;BME280;14279;50.010;8.260;2023-06-10T12:38:00;100099.03;;;29.78;30.19
26657;BME280;14279;50.010;8.260;2023-06-10T12:40:37;100106.91;;;29.93;29.70
26657;BME280;14279;50.010;8.260;2023-06-10T12:43:05;100104.00;;;29.67;29.67
26657;BME280;14279;50.010;8.260;2023-06-10T12:45:32;100100.50;;;29.94;29.58
26657;BME280;14279;50.010;8.260;2023-06-10T12:48:08;100104.84;;;29.88;29.78
26657;BME280;14279;50.010;8.260;2023-06-10T12:50:35;100096.56;;;29.69;29.75
26657;BME280;14279;50.010;8.260;2023-06-10T12:53:02;100103.59;;;29.77;29.94
26657;BME280;14279;50.010;8.260;2023-06-10T12:55:27;100100.34;;;30.36;28.71
26657;BME280;14279;50.010;8.260;2023-06-10T12:57:54;100088.53;;;30.64;28.38
26657;BME280;14279;50.010;8.260;2023-06-10T13:00:20;100093.91;;;30.23;28.88
26657;BME280;14279;50.010;8.260;2023-06-10T13:02:45;100089.44;;;31.03;27.94
26657;BME280;14279;50.010;8.260;2023-06-10T13:05:11;100084.53;;;31.77;26.83